createdAt,value
2023-02-19T00:08:16.430Z,9.6
2023-02-19T00:18:18.085Z,9.7
2023-02-19T00:28:20.090Z,9.6
2023-02-19T00:38:22.513Z,9.6
2023-02-19T00:48:24.097Z,9.7
2023-02-19T00:58:26.164Z,9.7
2023-02-19T01:08:28.781Z,9.7
2023-02-19T01:18:30.436Z,9.7
2023-02-19T01:28:32.901Z,9.7
2023-02-19T01:38:34.681Z,9.8
2023-02-19T01:48:37.165Z,9.6
2023-02-19T01:58:39.225Z,9.4
2023-02-19T02:08:41.414Z,9.3
2023-02-19T02:18:43.238Z,9.2
2023-02-19T02:28:45.602Z,9.3
2023-02-19T02:38:47.484Z,9.1
2023-02-19T02:48:49.670Z,9
2023-02-19T02:58:51.562Z,9
2023-02-19T03:08:53.723Z,9
2023-02-19T03:28:58.112Z,9
2023-02-19T03:39:00.363Z,9
2023-02-19T03:59:04.688Z,9
2023-02-19T04:09:06.517Z,8.8
2023-02-19T04:19:08.652Z,8.8
2023-02-19T04:39:12.926Z,8.8
2023-02-19T04:49:14.902Z,8.8
2023-02-19T04:59:16.587Z,8.8
2023-02-19T05:09:18.683Z,8.7
2023-02-19T05:19:21.197Z,8.7
2023-02-19T05:29:23.762Z,8.7
2023-02-19T05:39:25.749Z,8.7
2023-02-19T05:49:28.239Z,8.7
2023-02-19T06:19:34.990Z,8.5
2023-02-19T06:29:37.156Z,8.4
2023-02-19T06:39:39.641Z,8.4
2023-02-19T06:49:41.173Z,8.3
2023-02-19T06:59:42.891Z,8.3
2023-02-19T07:09:44.625Z,8.4
2023-02-19T07:29:49.435Z,8.4
2023-02-19T07:39:51.616Z,8.5
2023-02-19T07:49:53.793Z,8.4
2023-02-19T07:59:55.552Z,8.3
2023-02-19T08:09:58.001Z,8.3
2023-02-19T08:20:00.370Z,8.4
2023-02-19T08:30:02.727Z,8.4
2023-02-19T08:40:05.028Z,8.5
2023-02-19T08:50:06.860Z,8.5
2023-02-19T09:10:11.347Z,8.4
2023-02-19T09:20:13.991Z,8.6
2023-02-19T09:30:15.916Z,8.7
2023-02-19T09:40:17.779Z,8.7
2023-02-19T09:50:20.225Z,8.6
2023-02-19T10:00:21.825Z,8.5
2023-02-19T10:10:23.513Z,8.7
2023-02-19T10:30:27.936Z,8.8
2023-02-19T10:40:29.567Z,8.3
2023-02-19T10:50:31.243Z,6.8
2023-02-19T11:00:33.401Z,6.6
2023-02-19T11:10:35.549Z,6.6
2023-02-19T11:20:37.510Z,6.6
2023-02-19T11:30:39.911Z,6.4
2023-02-19T11:40:42.403Z,6.3
2023-02-19T12:00:46.698Z,6.5
2023-02-19T12:10:48.429Z,6.9
2023-02-19T12:20:50.469Z,6.7
2023-02-19T12:30:52.860Z,6.8
2023-02-19T12:40:55.286Z,6.9
2023-02-19T12:50:57.261Z,6.9
2023-02-19T13:00:59.327Z,6.8
2023-02-19T13:11:01.032Z,7
2023-02-19T13:21:02.978Z,6.8
2023-02-19T13:31:04.770Z,7
2023-02-19T13:41:06.864Z,6.9
2023-02-19T13:51:09.151Z,7
2023-02-19T14:01:11.820Z,7
2023-02-19T14:11:13.382Z,7
2023-02-19T14:21:15.660Z,6.9
2023-02-19T14:31:18.393Z,7
2023-02-19T14:41:26.459Z,7
2023-02-19T14:51:28.162Z,7.1
2023-02-19T15:01:30.027Z,7
2023-02-19T15:11:32.289Z,7
2023-02-19T15:21:34.955Z,7
2023-02-19T15:31:36.809Z,7
2023-02-19T15:41:38.515Z,7.2
2023-02-19T15:51:40.723Z,7.3
2023-02-19T16:11:45.369Z,7.5
2023-02-19T16:51:54.961Z,7.5
2023-02-19T17:01:57.311Z,7.5
2023-02-19T17:11:59.380Z,7.5
2023-02-19T17:22:01.207Z,7.4
2023-02-19T17:32:03.369Z,7.3
2023-02-19T17:42:05.476Z,7.3
2023-02-19T17:52:07.872Z,7.1
2023-02-19T18:02:10.038Z,7
2023-02-19T18:12:11.949Z,6.6
2023-02-19T18:22:13.872Z,6.3
2023-02-19T18:32:16.257Z,6.2
2023-02-19T18:42:18.832Z,6.1
2023-02-19T19:02:23.346Z,5.9
2023-02-19T19:12:25.234Z,5.8
2023-02-19T19:32:29.376Z,5.6
2023-02-19T19:42:31.558Z,5.6
2023-02-19T19:52:33.905Z,5.6
2023-02-19T20:02:35.841Z,5.6
2023-02-19T20:12:38.416Z,5.6
2023-02-19T20:22:40.731Z,5.7
2023-02-19T20:32:43.003Z,5.6
2023-02-19T20:42:44.959Z,5.6
2023-02-19T20:52:46.809Z,5.6
2023-02-19T21:02:48.568Z,5.5
2023-02-19T21:12:50.466Z,5.5
2023-02-19T21:22:52.840Z,5.4
2023-02-19T21:32:54.976Z,5.4
2023-02-19T21:42:57.261Z,5.5
2023-02-19T21:52:59.815Z,5.6
2023-02-19T22:33:08.102Z,5.6
2023-02-19T22:53:12.052Z,5.5
2023-02-19T23:03:14.401Z,5.3
2023-02-19T23:13:16.955Z,5.2
2023-02-19T23:23:18.830Z,5.1
2023-02-19T23:33:21.412Z,4.9
2023-02-19T23:43:23.139Z,4.9
2023-02-19T23:53:25.023Z,5
